sensor_id;sensor_type;location;lat;lon;timestamp;pressure;altitude;pressure_sealevel;temperature;humidity
50057;BME280;36875;49.468;11.200;2022-07-22T00:02:12;98308.38;;;23.61;48.37
50057;BME280;36875;49.468;11.200;2022-07-22T00:04:39;98308.38;;;23.61;48.24
50057;BME280;36875;49.468;11.200;2022-07-22T00:07:04;98311.13;;;23.61;47.97
50057;BME280;36875;49.468;11.200;2022-07-22T00:09:30;98311.13;;;23.61;48.12
50057;BME280;36875;49.468;11.200;2022-07-22T00:11:56;98310.34;;;23.61;47.98
50057;BME280;36875;49.468;11.200;2022-07-22T00:14:21;98310.34;;;23.61;48.27
50057;BME280;36875;49.468;11.200;2022-07-22T00:16:47;98294.81;;;23.56;48.32
50057;BME280;36875;49.468;11.200;2022-07-22T00:19:13;98304.03;;;23.60;48.40
50057;BME280;36875;49.468;11.200;2022-07-22T00:21:40;98298.53;;;23.60;48.16
50057;BME280;36875;49.468;11.200;2022-07-22T00:24:07;98297.72;;;23.60;48.45
50057;BME280;36875;49.468;11.200;2022-07-22T00:26:33;98301.28;;;23.60;48.15
50057;BME280;36875;49.468;11.200;2022-07-22T00:28:58;98300.47;;;23.60;48.20
50057;BME280;36875;49.468;11.200;2022-07-22T00:31:24;98292.56;;;23.58;48.20
50057;BME280;36875;49.468;11.200;2022-07-22T00:33:49;98302.41;;;23.59;48.35
50057;BME280;36875;49.468;11.200;2022-07-22T00:36:15;98305.97;;;23.60;48.05
50057;BME280;36875;49.468;11.200;2022-07-22T00:38:42;98309.53;;;23.60;48.21
50057;BME280;36875;49.468;11.200;2022-07-22T00:41:08;98305.16;;;23.59;48.25
50057;BME280;36875;49.468;11.200;2022-07-22T00:43:53;98305.16;;;23.59;48.34
50057;BME280;36875;49.468;11.200;2022-07-22T00:46:19;98307.44;;;23.57;48.24
50057;BME280;36875;49.468;11.200;2022-07-22T00:48:45;98307.09;;;23.59;48.19
50057;BME280;36875;49.468;11.200;2022-07-22T00:51:11;98307.09;;;23.59;48.35
50057;BME280;36875;49.468;11.200;2022-07-22T00:53:37;98295.97;;;23.55;48.00
50057;BME280;36875;49.468;11.200;2022-07-22T00:56:05;98298.06;;;23.58;48.21
50057;BME280;36875;49.468;11.200;2022-07-22T00:58:31;98299.19;;;23.57;48.00
50057;BME280;36875;49.468;11.200;2022-07-22T01:00:56;98299.19;;;23.57;48.23
50057;BME280;36875;49.468;11.200;2022-07-22T01:03:22;98296.91;;;23.59;48.17
50057;BME280;36875;49.468;11.200;2022-07-22T01:05:48;98287.06;;;23.58;48.10
50057;BME280;36875;49.468;11.200;2022-07-22T01:08:13;98301.63;;;23.59;47.99
50057;BME280;36875;49.468;11.200;2022-07-22T01:10:39;98293.69;;;23.57;48.29
50057;BME280;36875;49.468;11.200;2022-07-22T01:13:06;98290.94;;;23.57;48.15
50057;BME280;36875;49.468;11.200;2022-07-22T01:15:32;98295.31;;;23.58;48.03
50057;BME280;36875;49.468;11.200;2022-07-22T01:17:59;98283.34;;;23.54;48.24
50057;BME280;36875;49.468;11.200;2022-07-22T01:20:26;98292.91;;;23.57;48.27
50057;BME280;36875;49.468;11.200;2022-07-22T01:22:52;98287.25;;;23.53;48.17
50057;BME280;36875;49.468;11.200;2022-07-22T01:25:17;98285.44;;;23.57;47.91
50057;BME280;36875;49.468;11.200;2022-07-22T01:27:43;98284.66;;;23.57;48.05
50057;BME280;36875;49.468;11.200;2022-07-22T01:30:09;98290.47;;;23.55;48.19
50057;BME280;36875;49.468;11.200;2022-07-22T01:32:35;98293.69;;;23.57;48.16
50057;BME280;36875;49.468;11.200;2022-07-22T01:35:01;98288.53;;;23.56;48.27
50057;BME280;36875;49.468;11.200;2022-07-22T01:37:28;98292.06;;;23.56;48.10
50057;BME280;36875;49.468;11.200;2022-07-22T01:39:54;98277.84;;;23.54;48.22
50057;BME280;36875;49.468;11.200;2022-07-22T01:42:19;98281.91;;;23.57;47.91
50057;BME280;36875;49.468;11.200;2022-07-22T01:44:45;98280.59;;;23.54;48.12
50057;BME280;36875;49.468;11.200;2022-07-22T01:47:11;98288.84;;;23.54;48.25
50057;BME280;36875;49.468;11.200;2022-07-22T01:49:36;98294.81;;;23.56;48.22
50057;BME280;36875;49.468;11.200;2022-07-22T01:52:03;98284.03;;;23.51;48.02
50057;BME280;36875;49.468;11.200;2022-07-22T01:54:30;98291.25;;;23.56;48.33
50057;BME280;36875;49.468;11.200;2022-07-22T01:56:56;98277.53;;;23.47;48.11
50057;BME280;36875;49.468;11.200;2022-07-22T01:59:22;98284.97;;;23.55;47.92
50057;BME280;36875;49.468;11.200;2022-07-22T02:01:47;98290.47;;;23.55;47.91
50057;BME280;36875;49.468;11.200;2022-07-22T02:04:13;98285.63;;;23.52;47.95
50057;BME280;36875;49.468;11.200;2022-07-22T02:06:39;98299.50;;;23.56;48.16
50057;BME280;36875;49.468;11.200;2022-07-22T02:09:06;98294.34;;;23.54;48.15
50057;BME280;36875;49.468;11.200;2022-07-22T02:11:34;98301.47;;;23.55;48.13
50057;BME280;36875;49.468;11.200;2022-07-22T02:14:00;98298.22;;;23.53;48.00
50057;BME280;36875;49.468;11.200;2022-07-22T02:16:25;98299.03;;;23.54;48.06
50057;BME280;36875;49.468;11.200;2022-07-22T02:18:51;98295.16;;;23.55;47.98
50057;BME280;36875;49.468;11.200;2022-07-22T02:21:17;98299.81;;;23.54;47.82
50057;BME280;36875;49.468;11.200;2022-07-22T02:23:43;98293.53;;;23.54;48.12
50057;BME280;36875;49.468;11.200;2022-07-22T02:26:09;98284.66;;;23.48;48.09
50057;BME280;36875;49.468;11.200;2022-07-22T02:28:36;98296.13;;;23.50;48.18
50057;BME280;36875;49.468;11.200;2022-07-22T02:31:02;98278.84;;;23.41;48.12
50057;BME280;36875;49.468;11.200;2022-07-22T02:33:28;98296.28;;;23.54;48.05
50057;BME280;36875;49.468;11.200;2022-07-22T02:35:55;98290.94;;;23.48;48.08
50057;BME280;36875;49.468;11.200;2022-07-22T02:38:20;98299.03;;;23.54;48.21
50057;BME280;36875;49.468;11.200;2022-07-22T02:40:46;98297.44;;;23.53;48.03
50057;BME280;36875;49.468;11.200;2022-07-22T02:43:11;98289.69;;;23.46;48.04
50057;BME280;36875;49.468;11.200;2022-07-22T02:45:38;98295.47;;;23.53;48.07
50057;BME280;36875;49.468;11.200;2022-07-22T02:48:04;98298.22;;;23.53;48.00
50057;BME280;36875;49.468;11.200;2022-07-22T02:50:30;98269.16;;;23.35;47.97
50057;BME280;36875;49.468;11.200;2022-07-22T02:52:57;98295.47;;;23.53;48.02
50057;BME280;36875;49.468;11.200;2022-07-22T02:55:23;98300.97;;;23.53;48.04
50057;BME280;36875;49.468;11.200;2022-07-22T02:57:49;98299.34;;;23.52;48.09
50057;BME280;36875;49.468;11.200;2022-07-22T03:00:15;98291.94;;;23.53;48.08
50057;BME280;36875;49.468;11.200;2022-07-22T03:02:42;98302.94;;;23.53;47.87
50057;BME280;36875;49.468;11.200;2022-07-22T03:05:08;98304.84;;;23.52;47.94
50057;BME280;36875;49.468;11.200;2022-07-22T03:07:34;98298.88;;;23.50;48.06
50057;BME280;36875;49.468;11.200;2022-07-22T03:10:00;98295.00;;;23.51;48.06
50057;BME280;36875;49.468;11.200;2022-07-22T03:12:26;98288.38;;;23.52;47.81
50057;BME280;36875;49.468;11.200;2022-07-22T03:14:52;98287.88;;;23.50;47.88
50057;BME280;36875;49.468;11.200;2022-07-22T03:17:17;98290.31;;;23.52;47.90
50057;BME280;36875;49.468;11.200;2022-07-22T03:19:44;98298.56;;;23.52;47.83
50057;BME280;36875;49.468;11.200;2022-07-22T03:22:10;98293.38;;;23.50;48.09
50057;BME280;36875;49.468;11.200;2022-07-22T03:24:36;98295.00;;;23.51;48.08
50057;BME280;36875;49.468;11.200;2022-07-22T03:27:01;98297.75;;;23.51;47.88
50057;BME280;36875;49.468;11.200;2022-07-22T03:29:27;98287.88;;;23.50;47.73
50057;BME280;36875;49.468;11.200;2022-07-22T03:31:52;98298.06;;;23.50;47.80
50057;BME280;36875;49.468;11.200;2022-07-22T03:34:18;98283.06;;;23.38;47.96
50057;BME280;36875;49.468;11.200;2022-07-22T03:36:45;98303.56;;;23.50;47.94
50057;BME280;36875;49.468;11.200;2022-07-22T03:39:11;98301.63;;;23.50;47.92
50057;BME280;36875;49.468;11.200;2022-07-22T03:41:37;98307.91;;;23.51;47.90
50057;BME280;36875;49.468;11.200;2022-07-22T03:44:03;98301.94;;;23.48;48.05
50057;BME280;36875;49.468;11.200;2022-07-22T03:46:28;98301.94;;;23.48;47.84
50057;BME280;36875;49.468;11.200;2022-07-22T03:48:54;98303.56;;;23.50;47.98
50057;BME280;36875;49.468;11.200;2022-07-22T03:51:19;98303.56;;;23.50;47.61
50057;BME280;36875;49.468;11.200;2022-07-22T03:53:46;98306.31;;;23.50;48.03
50057;BME280;36875;49.468;11.200;2022-07-22T03:56:12;98293.38;;;23.41;47.63
50057;BME280;36875;49.468;11.200;2022-07-22T03:58:38;98303.56;;;23.50;47.90
50057;BME280;36875;49.468;11.200;2022-07-22T04:01:03;98309.38;;;23.48;47.92
50057;BME280;36875;49.468;11.200;2022-07-22T04:03:29;98308.25;;;23.49;47.83
50057;BME280;36875;49.468;11.200;2022-07-22T04:05:54;98310.50;;;23.47;47.86
50057;BME280;36875;49.468;11.200;2022-07-22T04:08:20;98316.50;;;23.49;47.70
50057;BME280;36875;49.468;11.200;2022-07-22T04:10:47;98316.50;;;23.49;47.82
50057;BME280;36875;49.468;11.200;2022-07-22T04:13:13;98311.31;;;23.47;47.67
50057;BME280;36875;49.468;11.200;2022-07-22T04:15:38;98313.59;;;23.45;47.62
50057;BME280;36875;49.468;11.200;2022-07-22T04:18:04;98305.00;;;23.47;48.15
50057;BME280;36875;49.468;11.200;2022-07-22T04:20:30;98303.41;;;23.46;47.50
50057;BME280;36875;49.468;11.200;2022-07-22T04:22:55;98310.19;;;23.48;47.67
50057;BME280;36875;49.468;11.200;2022-07-22T04:25:21;98302.25;;;23.47;47.70
50057;BME280;36875;49.468;11.200;2022-07-22T04:27:48;98306.63;;;23.48;47.92
50057;BME280;36875;49.468;11.200;2022-07-22T04:30:14;98305.00;;;23.47;47.64
50057;BME280;36875;49.468;11.200;2022-07-22T04:32:40;98305.84;;;23.47;47.57
50057;BME280;36875;49.468;11.200;2022-07-22T04:35:06;98303.88;;;23.48;47.85
50057;BME280;36875;49.468;11.200;2022-07-22T04:37:31;98307.44;;;23.48;47.73
50057;BME280;36875;49.468;11.200;2022-07-22T04:39:57;98301.94;;;23.48;47.79
50057;BME280;36875;49.468;11.200;2022-07-22T04:42:22;98295.66;;;23.48;47.77
50057;BME280;36875;49.468;11.200;2022-07-22T04:44:49;98294.00;;;23.47;47.88
50057;BME280;36875;49.468;11.200;2022-07-22T04:47:15;98301.94;;;23.48;47.53
50057;BME280;36875;49.468;11.200;2022-07-22T04:49:41;98289.69;;;23.46;47.75
50057;BME280;36875;49.468;11.200;2022-07-22T04:52:06;98295.66;;;23.48;47.62
50057;BME280;36875;49.468;11.200;2022-07-22T04:54:32;98299.19;;;23.48;47.61
50057;BME280;36875;49.468;11.200;2022-07-22T04:56:58;98291.78;;;23.49;47.77
50057;BME280;36875;49.468;11.200;2022-07-22T04:59:23;98291.44;;;23.51;47.72
50057;BME280;36875;49.468;11.200;2022-07-22T05:01:50;98299.81;;;23.54;47.33
50057;BME280;36875;49.468;11.200;2022-07-22T05:04:16;98301.47;;;23.55;47.87
50057;BME280;36875;49.468;11.200;2022-07-22T05:06:41;98293.22;;;23.55;47.65
50057;BME280;36875;49.468;11.200;2022-07-22T05:09:07;98291.09;;;23.52;47.65
50057;BME280;36875;49.468;11.200;2022-07-22T05:11:33;98299.81;;;23.54;47.47
50057;BME280;36875;49.468;11.200;2022-07-22T05:13:58;98293.53;;;23.54;47.45
50057;BME280;36875;49.468;11.200;2022-07-22T05:16:24;98304.53;;;23.54;47.68
50057;BME280;36875;49.468;11.200;2022-07-22T05:18:51;98304.53;;;23.54;47.59
50057;BME280;36875;49.468;11.200;2022-07-22T05:21:17;98304.19;;;23.55;47.56
50057;BME280;36875;49.468;11.200;2022-07-22T05:23:42;98310.19;;;23.57;47.58
50057;BME280;36875;49.468;11.200;2022-07-22T05:26:08;98295.63;;;23.57;47.46
50057;BME280;36875;49.468;11.200;2022-07-22T05:28:34;98303.88;;;23.57;47.51
50057;BME280;36875;49.468;11.200;2022-07-22T05:31:00;98299.66;;;23.59;47.37
50057;BME280;36875;49.468;11.200;2022-07-22T05:33:26;98304.84;;;23.61;47.41
50057;BME280;36875;49.468;11.200;2022-07-22T05:35:53;98299.34;;;23.61;47.33
50057;BME280;36875;49.468;11.200;2022-07-22T05:38:19;98286.25;;;23.58;47.31
50057;BME280;36875;49.468;11.200;2022-07-22T05:40:44;98292.53;;;23.67;47.32
50057;BME280;36875;49.468;11.200;2022-07-22T05:43:10;98291.09;;;23.70;47.11
50057;BME280;36875;49.468;11.200;2022-07-22T05:45:36;98288.81;;;23.72;47.23
50057;BME280;36875;49.468;11.200;2022-07-22T05:48:01;98274.44;;;23.66;47.51
50057;BME280;36875;49.468;11.200;2022-07-22T05:50:27;98293.78;;;23.78;47.34
50057;BME280;36875;49.468;11.200;2022-07-22T05:52:54;98291.59;;;23.80;47.32
50057;BME280;36875;49.468;11.200;2022-07-22T05:55:20;98291.22;;;23.82;47.28
50057;BME280;36875;49.468;11.200;2022-07-22T05:57:45;98292.88;;;23.83;47.13
50057;BME280;36875;49.468;11.200;2022-07-22T06:00:12;98291.38;;;23.85;47.19
50057;BME280;36875;49.468;11.200;2022-07-22T06:02:38;98292.69;;;23.88;46.94
50057;BME280;36875;49.468;11.200;2022-07-22T06:05:04;98297.03;;;23.89;47.39
50057;BME280;36875;49.468;11.200;2022-07-22T06:07:29;98293.50;;;23.89;46.95
50057;BME280;36875;49.468;11.200;2022-07-22T06:09:56;98302.69;;;23.93;47.15
50057;BME280;36875;49.468;11.200;2022-07-22T06:12:23;98299.13;;;23.92;47.16
50057;BME280;36875;49.468;11.200;2022-07-22T06:14:48;98299.63;;;23.94;47.09
50057;BME280;36875;49.468;11.200;2022-07-22T06:17:14;98302.38;;;23.94;47.15
50057;BME280;36875;49.468;11.200;2022-07-22T06:19:40;98296.38;;;23.92;46.58
50057;BME280;36875;49.468;11.200;2022-07-22T06:22:05;98299.28;;;23.96;47.02
50057;BME280;36875;49.468;11.200;2022-07-22T06:24:31;98300.09;;;23.96;47.16
50057;BME280;36875;49.468;11.200;2022-07-22T06:26:58;98304.16;;;23.99;46.93
50057;BME280;36875;49.468;11.200;2022-07-22T06:29:24;98305.75;;;24.00;46.92
50057;BME280;36875;49.468;11.200;2022-07-22T06:31:49;98298.28;;;24.00;46.88
50057;BME280;36875;49.468;11.200;2022-07-22T06:34:15;98304.28;;;24.02;47.04
50057;BME280;36875;49.468;11.200;2022-07-22T06:36:41;98308.66;;;24.03;46.88
50057;BME280;36875;49.468;11.200;2022-07-22T06:39:06;98309.44;;;24.04;46.96
50057;BME280;36875;49.468;11.200;2022-07-22T06:41:32;98305.91;;;24.03;47.02
50057;BME280;36875;49.468;11.200;2022-07-22T06:43:59;98305.25;;;24.07;46.83
50057;BME280;36875;49.468;11.200;2022-07-22T06:46:24;98314.28;;;24.07;46.80
50057;BME280;36875;49.468;11.200;2022-07-22T06:48:50;98311.53;;;24.07;46.79
50057;BME280;36875;49.468;11.200;2022-07-22T06:51:16;98315.09;;;24.08;46.61
50057;BME280;36875;49.468;11.200;2022-07-22T06:53:42;98311.22;;;24.09;46.85
50057;BME280;36875;49.468;11.200;2022-07-22T06:56:08;98310.09;;;24.10;47.01
50057;BME280;36875;49.468;11.200;2022-07-22T06:58:33;98312.50;;;24.11;46.88
50057;BME280;36875;49.468;11.200;2022-07-22T07:01:00;98305.06;;;24.12;46.87
50057;BME280;36875;49.468;11.200;2022-07-22T07:03:26;98301.16;;;24.13;46.92
50057;BME280;36875;49.468;11.200;2022-07-22T07:05:51;98298.41;;;24.13;47.12
50057;BME280;36875;49.468;11.200;2022-07-22T07:08:17;98300.84;;;24.14;47.02
50057;BME280;36875;49.468;11.200;2022-07-22T07:10:43;98299.72;;;24.15;47.20
50057;BME280;36875;49.468;11.200;2022-07-22T07:13:09;98294.88;;;24.12;47.13
50057;BME280;36875;49.468;11.200;2022-07-22T07:15:34;98295.03;;;24.16;47.10
50057;BME280;36875;49.468;11.200;2022-07-22T07:18:01;98275.31;;;24.05;46.68
50057;BME280;36875;49.468;11.200;2022-07-22T07:20:27;98290.78;;;24.18;46.79
50057;BME280;36875;49.468;11.200;2022-07-22T07:22:53;98282.53;;;24.18;47.14
50057;BME280;36875;49.468;11.200;2022-07-22T07:25:19;98280.28;;;24.20;46.94
50057;BME280;36875;49.468;11.200;2022-07-22T07:27:44;98279.47;;;24.20;46.70
50057;BME280;36875;49.468;11.200;2022-07-22T07:30:11;98281.09;;;24.21;47.05
50057;BME280;36875;49.468;11.200;2022-07-22T07:32:37;98279.94;;;24.22;47.08
50057;BME280;36875;49.468;11.200;2022-07-22T07:35:05;98280.78;;;24.22;46.72
50057;BME280;36875;49.468;11.200;2022-07-22T07:37:31;98271.38;;;24.23;46.89
50057;BME280;36875;49.468;11.200;2022-07-22T07:39:57;98262.50;;;24.18;47.00
50057;BME280;36875;49.468;11.200;2022-07-22T07:42:23;98265.88;;;24.23;46.81
50057;BME280;36875;49.468;11.200;2022-07-22T07:44:48;98269.09;;;24.25;47.02
50057;BME280;36875;49.468;11.200;2022-07-22T07:47:14;98267.97;;;24.27;46.92
50057;BME280;36875;49.468;11.200;2022-07-22T07:49:43;98266.81;;;24.28;47.02
50057;BME280;36875;49.468;11.200;2022-07-22T07:52:10;98266.81;;;24.28;46.54
50057;BME280;36875;49.468;11.200;2022-07-22T07:54:35;98257.44;;;24.29;47.08
50057;BME280;36875;49.468;11.200;2022-07-22T07:57:01;98257.44;;;24.29;46.84
50057;BME280;36875;49.468;11.200;2022-07-22T07:59:27;98251.59;;;24.30;46.83
50057;BME280;36875;49.468;11.200;2022-07-22T08:01:52;98255.16;;;24.31;46.77
50057;BME280;36875;49.468;11.200;2022-07-22T08:04:18;98250.44;;;24.31;46.66
50057;BME280;36875;49.468;11.200;2022-07-22T08:06:43;98250.44;;;24.31;46.90
50057;BME280;36875;49.468;11.200;2022-07-22T08:09:10;98249.31;;;24.32;46.90
50057;BME280;36875;49.468;11.200;2022-07-22T08:11:36;98248.84;;;24.30;46.70
50057;BME280;36875;49.468;11.200;2022-07-22T08:14:02;98244.00;;;24.27;46.57
50057;BME280;36875;49.468;11.200;2022-07-22T08:16:27;98253.69;;;24.33;46.72
50057;BME280;36875;49.468;11.200;2022-07-22T08:18:53;98250.94;;;24.33;46.78
50057;BME280;36875;49.468;11.200;2022-07-22T08:21:19;98250.44;;;24.31;46.90
50057;BME280;36875;49.468;11.200;2022-07-22T08:23:44;98247.84;;;24.35;46.69
50057;BME280;36875;49.468;11.200;2022-07-22T08:26:11;98246.25;;;24.34;46.72
50057;BME280;36875;49.468;11.200;2022-07-22T08:28:37;98247.38;;;24.33;46.71
50057;BME280;36875;49.468;11.200;2022-07-22T08:31:02;98233.94;;;24.31;46.46
50057;BME280;36875;49.468;11.200;2022-07-22T08:33:28;98243.50;;;24.34;46.69
50057;BME280;36875;49.468;11.200;2022-07-22T08:35:54;98247.03;;;24.34;46.79
50057;BME280;36875;49.468;11.200;2022-07-22T08:38:19;98233.94;;;24.31;46.87
50057;BME280;36875;49.468;11.200;2022-07-22T08:40:45;98238.47;;;24.36;46.94
50057;BME280;36875;49.468;11.200;2022-07-22T08:43:12;98229.38;;;24.35;46.93
50057;BME280;36875;49.468;11.200;2022-07-22T08:45:39;98223.88;;;24.35;46.80
50057;BME280;36875;49.468;11.200;2022-07-22T08:48:05;98234.91;;;24.35;47.03
50057;BME280;36875;49.468;11.200;2022-07-22T08:50:32;98223.09;;;24.35;46.71
50057;BME280;36875;49.468;11.200;2022-07-22T08:52:57;98223.88;;;24.35;46.91
50057;BME280;36875;49.468;11.200;2022-07-22T08:55:23;98222.28;;;24.34;46.71
50057;BME280;36875;49.468;11.200;2022-07-22T08:57:50;98218.38;;;24.35;46.95
50057;BME280;36875;49.468;11.200;2022-07-22T09:00:19;98215.63;;;24.35;46.88
50057;BME280;36875;49.468;11.200;2022-07-22T09:02:45;98212.09;;;24.35;46.85
50057;BME280;36875;49.468;11.200;2022-07-22T09:05:12;98212.88;;;24.35;46.70
50057;BME280;36875;49.468;11.200;2022-07-22T09:07:43;98207.38;;;24.35;46.88
50057;BME280;36875;49.468;11.200;2022-07-22T09:10:10;98214.84;;;24.35;46.77
50057;BME280;36875;49.468;11.200;2022-07-22T09:12:50;98205.78;;;24.34;46.74
50057;BME280;36875;49.468;11.200;2022-07-22T09:15:25;98205.78;;;24.34;46.58
50057;BME280;36875;49.468;11.200;2022-07-22T09:17:51;98203.03;;;24.34;47.01
50057;BME280;36875;49.468;11.200;2022-07-22T09:20:18;98208.53;;;24.34;47.05
50057;BME280;36875;49.468;11.200;2022-07-22T09:22:45;98204.16;;;24.33;46.58
50057;BME280;36875;49.468;11.200;2022-07-22T09:25:27;98209.66;;;24.33;46.83
50057;BME280;36875;49.468;11.200;2022-07-22T09:27:55;98198.66;;;24.33;47.18
50057;BME280;36875;49.468;11.200;2022-07-22T09:30:24;98203.38;;;24.33;46.82
50057;BME280;36875;49.468;11.200;2022-07-22T09:32:51;98202.56;;;24.32;46.58
50057;BME280;36875;49.468;11.200;2022-07-22T09:35:17;98205.31;;;24.32;47.00
50057;BME280;36875;49.468;11.200;2022-07-22T09:37:53;98200.63;;;24.33;46.98
50057;BME280;36875;49.468;11.200;2022-07-22T09:40:21;98202.56;;;24.32;46.92
50057;BME280;36875;49.468;11.200;2022-07-22T09:42:50;98187.38;;;24.26;46.95
50057;BME280;36875;49.468;11.200;2022-07-22T09:45:16;98197.06;;;24.32;46.89
50057;BME280;36875;49.468;11.200;2022-07-22T09:47:46;98189.94;;;24.31;46.82
50057;BME280;36875;49.468;11.200;2022-07-22T09:50:16;98192.69;;;24.31;47.17
50057;BME280;36875;49.468;11.200;2022-07-22T09:52:42;98191.91;;;24.31;47.07
50057;BME280;36875;49.468;11.200;2022-07-22T09:55:08;98197.41;;;24.31;47.13
50057;BME280;36875;49.468;11.200;2022-07-22T09:57:34;98193.84;;;24.30;47.17
50057;BME280;36875;49.468;11.200;2022-07-22T10:00:00;98187.88;;;24.28;47.03
50057;BME280;36875;49.468;11.200;2022-07-22T10:02:27;98182.84;;;24.30;46.93
50057;BME280;36875;49.468;11.200;2022-07-22T10:04:55;98188.34;;;24.30;46.87
50057;BME280;36875;49.468;11.200;2022-07-22T10:07:21;98182.03;;;24.30;46.95
50057;BME280;36875;49.468;11.200;2022-07-22T10:09:48;98186.72;;;24.29;47.00
50057;BME280;36875;49.468;11.200;2022-07-22T10:12:17;98182.03;;;24.30;46.92
50057;BME280;36875;49.468;11.200;2022-07-22T10:14:44;98177.69;;;24.29;47.17
50057;BME280;36875;49.468;11.200;2022-07-22T10:17:12;98178.47;;;24.29;46.85
50057;BME280;36875;49.468;11.200;2022-07-22T10:19:38;98174.13;;;24.28;46.80
50057;BME280;36875;49.468;11.200;2022-07-22T10:24:59;98162.31;;;24.28;47.07
50057;BME280;36875;49.468;11.200;2022-07-22T10:27:43;98171.38;;;24.28;47.06
50057;BME280;36875;49.468;11.200;2022-07-22T10:30:10;98167.81;;;24.28;47.10
50057;BME280;36875;49.468;11.200;2022-07-22T10:32:36;98168.63;;;24.28;47.14
50057;BME280;36875;49.468;11.200;2022-07-22T10:35:22;98154.94;;;24.19;47.08
50057;BME280;36875;49.468;11.200;2022-07-22T10:37:51;98161.50;;;24.27;47.19
50057;BME280;36875;49.468;11.200;2022-07-22T10:40:19;98166.22;;;24.27;47.14
50057;BME280;36875;49.468;11.200;2022-07-22T10:43:03;98157.13;;;24.26;47.19
50057;BME280;36875;49.468;11.200;2022-07-22T10:45:31;98160.72;;;24.27;47.11
50057;BME280;36875;49.468;11.200;2022-07-22T10:47:58;98156.00;;;24.27;47.20
50057;BME280;36875;49.468;11.200;2022-07-22T10:50:49;98153.25;;;24.27;47.20
50057;BME280;36875;49.468;11.200;2022-07-22T10:53:19;98157.97;;;24.27;46.98
50057;BME280;36875;49.468;11.200;2022-07-22T10:56:03;98147.75;;;24.27;47.05
50057;BME280;36875;49.468;11.200;2022-07-22T10:58:55;98144.53;;;24.25;47.03
50057;BME280;36875;49.468;11.200;2022-07-22T11:01:26;98143.94;;;24.19;47.12
50057;BME280;36875;49.468;11.200;2022-07-22T11:03:53;98147.63;;;24.23;46.95
50057;BME280;36875;49.468;11.200;2022-07-22T11:06:25;98146.13;;;24.26;47.10
50057;BME280;36875;49.468;11.200;2022-07-22T11:08:54;98141.78;;;24.25;47.33
50057;BME280;36875;49.468;11.200;2022-07-22T11:11:40;98138.25;;;24.24;47.00
50057;BME280;36875;49.468;11.200;2022-07-22T11:14:21;98135.13;;;24.26;47.23
50057;BME280;36875;49.468;11.200;2022-07-22T11:16:48;98137.09;;;24.25;47.20
50057;BME280;36875;49.468;11.200;2022-07-22T11:19:15;98129.16;;;24.24;47.34
50057;BME280;36875;49.468;11.200;2022-07-22T11:21:49;98119.78;;;24.25;47.25
50057;BME280;36875;49.468;11.200;2022-07-22T11:24:16;98124.50;;;24.24;47.00
50057;BME280;36875;49.468;11.200;2022-07-22T11:26:44;98116.25;;;24.24;46.94
50057;BME280;36875;49.468;11.200;2022-07-22T11:29:16;98119.00;;;24.24;47.50
50057;BME280;36875;49.468;11.200;2022-07-22T11:31:42;98124.50;;;24.24;47.15
50057;BME280;36875;49.468;11.200;2022-07-22T11:34:08;98108.00;;;24.24;47.00
50057;BME280;36875;49.468;11.200;2022-07-22T11:36:36;98119.00;;;24.24;47.34
50057;BME280;36875;49.468;11.200;2022-07-22T11:39:02;98113.81;;;24.23;47.15
50057;BME280;36875;49.468;11.200;2022-07-22T11:41:30;98093.84;;;24.14;47.25
50057;BME280;36875;49.468;11.200;2022-07-22T11:43:57;98098.91;;;24.24;47.24
50057;BME280;36875;49.468;11.200;2022-07-22T11:46:23;98098.44;;;24.22;47.04
50057;BME280;36875;49.468;11.200;2022-07-22T11:48:51;98093.63;;;24.19;47.08
50057;BME280;36875;49.468;11.200;2022-07-22T11:51:17;98096.16;;;24.24;47.15
50057;BME280;36875;49.468;11.200;2022-07-22T11:53:43;98091.34;;;24.21;47.29
50057;BME280;36875;49.468;11.200;2022-07-22T11:56:10;98080.34;;;24.21;47.06
50057;BME280;36875;49.468;11.200;2022-07-22T11:58:40;98086.78;;;24.25;47.28
50057;BME280;36875;49.468;11.200;2022-07-22T12:01:06;98082.78;;;24.22;47.17
50057;BME280;36875;49.468;11.200;2022-07-22T12:03:33;98069.81;;;24.23;47.40
50057;BME280;36875;49.468;11.200;2022-07-22T12:06:01;98075.31;;;24.23;47.20
50057;BME280;36875;49.468;11.200;2022-07-22T12:08:27;98070.94;;;24.22;47.27
50057;BME280;36875;49.468;11.200;2022-07-22T12:10:54;98071.78;;;24.22;47.23
50057;BME280;36875;49.468;11.200;2022-07-22T12:13:20;98070.63;;;24.23;47.16
50057;BME280;36875;49.468;11.200;2022-07-22T12:15:47;98059.16;;;24.21;47.29
50057;BME280;36875;49.468;11.200;2022-07-22T12:18:17;98069.50;;;24.24;47.26
50057;BME280;36875;49.468;11.200;2022-07-22T12:20:44;98058.81;;;24.23;47.38
50057;BME280;36875;49.468;11.200;2022-07-22T12:23:10;98062.03;;;24.25;46.98
50057;BME280;36875;49.468;11.200;2022-07-22T12:25:52;98049.78;;;24.22;47.44
50057;BME280;36875;49.468;11.200;2022-07-22T12:28:18;98058.50;;;24.24;47.27
50057;BME280;36875;49.468;11.200;2022-07-22T12:30:44;98049.41;;;24.24;47.12
50057;BME280;36875;49.468;11.200;2022-07-22T12:33:14;98034.88;;;24.23;47.36
50057;BME280;36875;49.468;11.200;2022-07-22T12:35:40;98026.16;;;24.21;46.88
50057;BME280;36875;49.468;11.200;2022-07-22T12:38:07;98028.56;;;24.23;47.33
50057;BME280;36875;49.468;11.200;2022-07-22T12:40:33;98030.16;;;24.24;47.17
50057;BME280;36875;49.468;11.200;2022-07-22T12:43:00;98028.56;;;24.23;47.42
50057;BME280;36875;49.468;11.200;2022-07-22T12:45:28;98020.31;;;24.23;46.95
50057;BME280;36875;49.468;11.200;2022-07-22T12:47:55;98012.28;;;24.18;47.32
50057;BME280;36875;49.468;11.200;2022-07-22T12:50:26;98019.53;;;24.22;47.13
50057;BME280;36875;49.468;11.200;2022-07-22T12:52:54;98012.41;;;24.21;47.37